Time,TemperatureF,DewpointF,PressureIn,WindDirection,WindDirectionDegrees,WindSpeedMPH,WindSpeedGustMPH,Humidity,HourlyPrecipIn,Conditions,Clouds,dailyrainin,SolarRadiationWatts/m^2,SoftwareType,DateUTC
2013-09-23 00:01:00,75.0,65.4,30.03,ENE,68,4.3,5.8,72,0.00,SCT,BKN,0.00,0.0,WeatherDisplay:10.37,2013-09-23 10:01:00,
2013-09-23 00:06:00,75.0,65.4,30.03,ENE,68,5.6,8.1,72,0.00,SCT,BKN,0.00,0.0,WeatherDisplay:10.37,2013-09-23 10:06:00,
2013-09-23 00:11:00,75.0,65.0,30.03,ENE,68,5.9,6.9,71,0.00,SCT,BKN,0.00,0.0,WeatherDisplay:10.37,2013-09-23 10:11:00,
2013-09-23 00:16:00,75.0,65.0,30.03,NE,45,4.0,5.8,71,0.00,SCT,BKN,0.00,0.0,WeatherDisplay:10.37,2013-09-23 10:16:00,
2013-09-23 00:21:00,75.0,65.0,30.03,ENE,68,4.9,6.4,71,0.00,SCT,BKN,0.00,0.0,WeatherDisplay:10.37,2013-09-23 10:21:00,
2013-09-23 00:26:00,75.0,65.0,30.03,NE,45,3.8,8.1,71,0.00,SCT,BKN,0.00,0.0,WeatherDisplay:10.37,2013-09-23 10:26:00,
2013-09-23 00:31:00,75.0,65.0,30.03,NNE,22,2.4,4.6,71,0.00,SCT,BKN,0.00,0.0,WeatherDisplay:10.37,2013-09-23 10:31:00,
2013-09-23 00:36:00,75.0,65.8,30.03,NE,45,4.3,5.8,73,0.00,SCT,BKN,0.00,0.0,WeatherDisplay:10.37,2013-09-23 10:36:00,
2013-09-23 00:41:00,75.0,65.0,30.06,ENE,68,1.6,3.5,71,0.00,SCT,BKN,0.00,0.0,WeatherDisplay:10.37,2013-09-23 10:41:00,
2013-09-23 00:46:00,75.0,65.4,30.06,NE,45,3.6,4.6,72,0.00,SCT,BKN,0.00,0.0,WeatherDisplay:10.37,2013-09-23 10:46:00,
2013-09-23 00:51:00,75.0,65.8,30.06,NE,45,2.4,2.4,73,0.00,SCT,BKN,0.00,0.0,WeatherDisplay:10.37,2013-09-23 10:51:00,
2013-09-23 00:56:00,75.0,66.6,30.03,NE,45,3.8,5.8,75,0.00,SCT,BKN,0.00,0.0,WeatherDisplay:10.37,2013-09-23 10:56:00,
2013-09-23 01:01:00,75.0,66.6,30.03,North,0,2.6,3.5,75,0.00,SCT,BKN,0.00,0.0,WeatherDisplay:10.37,2013-09-23 11:01:00,
2013-09-23 01:06:00,74.8,66.4,30.03,NNE,22,3.3,4.9,75,0.00,SCT,BKN,0.00,0.0,WeatherDisplay:10.37,2013-09-23 11:06:00,
2013-09-23 01:11:00,75.0,66.2,30.03,North,0,3.3,10.4,74,0.00,SCT,BKN,0.00,0.0,WeatherDisplay:10.37,2013-09-23 11:11:00,
2013-09-23 01:16:00,74.8,66.0,30.03,ESE,112,0.9,1.2,74,0.00,SCT,BKN,0.00,0.0,WeatherDisplay:10.37,2013-09-23 11:16:00,
2013-09-23 01:21:00,74.8,66.4,30.03,NE,45,3.1,3.5,75,0.00,SCT,BKN,0.00,0.0,WeatherDisplay:10.37,2013-09-23 11:21:00,
2013-09-23 01:26:00,74.8,66.8,30.03,ENE,68,2.9,4.6,76,0.00,SCT,BKN,0.00,0.0,WeatherDisplay:10.37,2013-09-23 11:26:00,
2013-09-23 01:31:00,74.7,65.8,30.03,East,90,0.0,2.3,74,0.00,SCT,BKN,0.00,0.0,WeatherDisplay:10.37,2013-09-23 11:31:00,
2013-09-23 01:36:00,74.8,66.4,30.03,NE,45,3.8,5.6,75,0.00,SCT,BKN,0.00,0.0,WeatherDisplay:10.37,2013-09-23 11:36:00,
2013-09-23 01:41:00,74.8,66.0,30.03,East,90,2.6,3.5,74,0.00,SCT,BKN,0.00,0.0,WeatherDisplay:10.37,2013-09-23 11:41:00,
2013-09-23 01:46:00,74.7,66.2,30.03,NE,45,1.2,2.4,75,0.00,SCT,BKN,0.00,0.0,WeatherDisplay:10.37,2013-09-23 11:46:00,
2013-09-23 01:51:00,74.7,66.2,30.03,East,90,4.5,5.8,75,0.00,SCT,BKN,0.00,0.0,WeatherDisplay:10.37,2013-09-23 11:51:00,
2013-09-23 01:56:00,74.7,65.8,30.03,ENE,68,2.6,5.8,74,0.00,SCT,BKN,0.00,0.0,WeatherDisplay:10.37,2013-09-23 11:56:00,
2013-09-23 02:01:00,74.7,65.8,30.03,NE,45,2.0,2.3,74,0.00,SCT,BKN,0.00,0.0,WeatherDisplay:10.37,2013-09-23 12:01:00,
2013-09-23 02:06:00,74.7,66.2,30.03,ESE,112,5.9,6.9,75,0.00,SCT,BKN,0.00,0.0,WeatherDisplay:10.37,2013-09-23 12:06:00,
2013-09-23 02:11:00,74.7,66.2,30.03,ENE,68,2.2,2.3,75,0.00,SCT,BKN,0.00,0.0,WeatherDisplay:10.37,2013-09-23 12:11:00,
2013-09-23 02:16:00,74.5,66.0,30.03,NE,45,2.0,3.5,75,0.00,SCT,BKN,0.00,0.0,WeatherDisplay:10.37,2013-09-23 12:16:00,
2013-09-23 02:21:00,74.5,66.0,30.03,ENE,68,3.1,5.8,75,0.00,SCT,BKN,0.00,0.0,WeatherDisplay:10.37,2013-09-23 12:21:00,
2013-09-23 02:26:00,74.5,65.6,30.00,North,0,2.9,3.5,74,0.00,SCT,BKN,0.00,0.0,WeatherDisplay:10.37,2013-09-23 12:26:00,
2013-09-23 02:31:00,74.8,66.0,30.00,NE,45,1.4,2.3,74,0.00,SCT,BKN,0.00,0.0,WeatherDisplay:10.37,2013-09-23 12:31:00,
2013-09-23 02:36:00,74.8,66.4,30.00,NE,45,3.6,4.6,75,0.00,SCT,BKN,0.00,0.0,WeatherDisplay:10.37,2013-09-23 12:36:00,
2013-09-23 02:41:00,75.0,66.2,30.03,NNE,22,2.9,3.6,74,0.00,SCT,BKN,0.00,0.0,WeatherDisplay:10.37,2013-09-23 12:41:00,
2013-09-23 02:46:00,74.8,66.4,30.03,NE,45,4.7,5.8,75,0.00,SCT,BKN,0.00,0.0,WeatherDisplay:10.37,2013-09-23 12:46:00,
2013-09-23 02:51:00,74.7,66.2,30.03,NE,45,2.6,4.7,75,0.00,SCT,BKN,0.00,0.0,WeatherDisplay:10.37,2013-09-23 12:51:00,
2013-09-23 02:56:00,74.7,65.8,30.00,East,90,1.6,4.6,74,0.00,SCT,BKN,0.00,0.0,WeatherDisplay:10.37,2013-09-23 12:56:00,
2013-09-23 03:01:00,74.7,66.2,30.00,East,90,3.1,3.5,75,0.00,SCT,BKN,0.00,0.0,WeatherDisplay:10.37,2013-09-23 13:01:00,
2013-09-23 03:06:00,74.8,66.8,30.00,North,0,4.0,4.6,76,0.00,SCT,BKN,0.00,0.0,WeatherDisplay:10.37,2013-09-23 13:06:00,
2013-09-23 03:11:00,74.8,66.8,30.03,NE,45,3.3,5.8,76,0.00,SCT,BKN,0.00,0.0,WeatherDisplay:10.37,2013-09-23 13:11:00,
2013-09-23 03:16:00,74.8,66.8,30.03,NE,45,4.0,4.6,76,0.00,SCT,BKN,0.00,0.0,WeatherDisplay:10.37,2013-09-23 13:16:00,
2013-09-23 03:21:00,74.7,66.2,30.03,NE,45,1.4,5.8,75,0.00,SCT,BKN,0.00,0.0,WeatherDisplay:10.37,2013-09-23 13:21:00,
2013-09-23 03:26:00,74.7,66.6,30.00,NE,45,3.3,4.6,76,0.00,SCT,BKN,0.00,0.0,WeatherDisplay:10.37,2013-09-23 13:26:00,
2013-09-23 03:31:00,74.7,66.6,30.00,NNE,22,3.8,4.6,76,0.00,SCT,BKN,0.00,0.0,WeatherDisplay:10.37,2013-09-23 13:31:00,
2013-09-23 03:36:00,74.7,67.0,30.00,NE,45,4.0,4.6,77,0.00,SCT,BKN,0.00,0.0,WeatherDisplay:10.37,2013-09-23 13:36:00,
2013-09-23 03:41:00,74.8,67.1,30.00,NE,45,1.2,3.5,77,0.00,SCT,BKN,0.00,0.0,WeatherDisplay:10.37,2013-09-23 13:41:00,
2013-09-23 03:46:00,74.3,67.4,30.00,NNE,22,2.0,3.6,79,0.05,RA,BKN,0.05,0.0,WeatherDisplay:10.37,2013-09-23 13:46:00,
2013-09-23 03:51:00,73.6,68.4,30.00,NE,45,3.8,4.6,84,0.05,RA,BKN,0.05,0.0,WeatherDisplay:10.37,2013-09-23 13:51:00,
2013-09-23 03:56:00,73.0,67.9,30.00,ENE,68,1.6,5.8,84,0.05,SCT,BKN,0.05,0.0,WeatherDisplay:10.37,2013-09-23 13:56:00,
2013-09-23 04:01:00,72.9,68.4,30.00,WSW,248,1.6,2.3,86,0.05,SCT,BKN,0.05,0.0,WeatherDisplay:10.37,2013-09-23 14:01:00,
2013-09-23 04:06:00,72.5,68.4,30.00,East,90,3.1,4.6,87,0.05,SCT,BKN,0.05,0.0,WeatherDisplay:10.37,2013-09-23 14:06:00,
2013-09-23 04:11:00,72.3,67.9,30.03,NNE,22,2.6,3.5,86,0.05,SCT,BKN,0.05,0.0,WeatherDisplay:10.37,2013-09-23 14:11:00,
2013-09-23 04:16:00,72.3,67.9,30.03,ENE,68,2.4,4.6,86,0.05,SCT,BKN,0.05,0.0,WeatherDisplay:10.37,2013-09-23 14:16:00,
2013-09-23 04:21:00,72.3,68.9,30.03,NE,45,3.3,4.6,89,0.05,SCT,BKN,0.05,0.0,WeatherDisplay:10.37,2013-09-23 14:21:00,
2013-09-23 04:26:00,72.1,68.7,30.00,NE,45,1.2,1.2,89,0.05,SCT,BKN,0.05,0.0,WeatherDisplay:10.37,2013-09-23 14:26:00,
2013-09-23 04:31:00,72.1,69.0,30.00,NE,45,2.2,4.0,90,0.05,SCT,BKN,0.05,0.0,WeatherDisplay:10.37,2013-09-23 14:31:00,
2013-09-23 04:36:00,72.0,68.9,30.00,NE,45,3.8,4.6,90,0.05,SCT,BKN,0.05,0.0,WeatherDisplay:10.37,2013-09-23 14:36:00,
2013-09-23 04:41:00,72.0,69.2,30.00,NNE,22,3.1,4.6,91,0.05,SCT,BKN,0.05,0.0,WeatherDisplay:10.37,2013-09-23 14:41:00,
2013-09-23 04:46:00,72.0,68.9,30.00,NE,45,4.5,5.8,90,0.00,SCT,BKN,0.05,0.0,WeatherDisplay:10.37,2013-09-23 14:46:00,
2013-09-23 04:51:00,72.1,69.0,30.00,NE,45,4.3,5.8,90,0.00,SCT,BKN,0.05,0.0,WeatherDisplay:10.37,2013-09-23 14:51:00,
2013-09-23 04:56:00,72.3,68.9,30.00,ENE,68,3.8,4.6,89,0.00,SCT,BKN,0.05,0.0,WeatherDisplay:10.37,2013-09-23 14:56:00,
2013-09-23 05:01:00,72.3,68.6,30.00,NE,45,2.9,3.6,88,0.00,SCT,BKN,0.05,0.0,WeatherDisplay:10.37,2013-09-23 15:01:00,
2013-09-23 05:06:00,72.5,69.1,30.00,ENE,68,2.2,4.7,89,0.00,SCT,BKN,0.05,0.0,WeatherDisplay:10.37,2013-09-23 15:06:00,
2013-09-23 05:11:00,72.7,68.6,30.00,ENE,68,3.8,4.6,87,0.00,SCT,BKN,0.05,0.0,WeatherDisplay:10.37,2013-09-23 15:11:00,
2013-09-23 05:16:00,72.7,68.6,30.00,NE,45,1.6,3.1,87,0.00,SCT,BKN,0.05,0.0,WeatherDisplay:10.37,2013-09-23 15:16:00,
2013-09-23 05:21:00,72.5,68.4,30.00,ENE,68,2.9,4.6,87,0.00,SCT,BKN,0.05,0.0,WeatherDisplay:10.37,2013-09-23 15:21:00,
2013-09-23 05:26:00,72.7,68.6,30.03,NE,45,2.9,5.8,87,0.00,SCT,BKN,0.05,0.0,WeatherDisplay:10.37,2013-09-23 15:26:00,
2013-09-23 05:31:00,72.9,68.1,30.03,ENE,68,2.4,3.5,85,0.00,SCT,BKN,0.05,0.0,WeatherDisplay:10.37,2013-09-23 15:31:00,
2013-09-23 05:36:00,73.0,68.6,30.03,East,90,3.3,6.9,86,0.00,SCT,BKN,0.05,0.0,WeatherDisplay:10.37,2013-09-23 15:36:00,
2013-09-23 05:41:00,73.0,68.6,30.03,NE,45,4.0,5.6,86,0.00,SCT,BKN,0.05,0.0,WeatherDisplay:10.37,2013-09-23 15:41:00,
2013-09-23 05:46:00,73.4,67.9,30.03,North,0,3.1,4.6,83,0.00,SCT,BKN,0.05,0.0,WeatherDisplay:10.37,2013-09-23 15:46:00,
2013-09-23 05:51:00,73.4,67.2,30.03,ENE,68,2.6,3.5,81,0.00,SCT,BKN,0.05,0.0,WeatherDisplay:10.37,2013-09-23 15:51:00,
2013-09-23 05:56:00,73.2,67.4,30.03,East,90,2.9,3.5,82,0.00,SCT,BKN,0.05,0.0,WeatherDisplay:10.37,2013-09-23 15:56:00,
2013-09-23 06:01:00,73.2,67.7,30.03,ENE,68,3.3,4.6,83,0.00,SCT,BKN,0.05,0.0,WeatherDisplay:10.37,2013-09-23 16:01:00,
2013-09-23 06:06:00,73.4,66.9,30.03,East,90,5.6,6.9,80,0.00,SCT,BKN,0.05,0.0,WeatherDisplay:10.37,2013-09-23 16:06:00,
2013-09-23 06:11:00,73.6,66.7,30.03,ENE,68,3.6,6.9,79,0.00,SCT,BKN,0.05,0.0,WeatherDisplay:10.37,2013-09-23 16:11:00,
2013-09-23 06:16:00,73.8,66.8,30.03,East,90,3.1,5.9,79,0.00,SCT,BKN,0.05,0.0,WeatherDisplay:10.37,2013-09-23 16:16:00,
2013-09-23 06:21:00,73.8,66.8,30.03,North,0,3.1,4.0,79,0.00,SCT,BKN,0.05,0.0,WeatherDisplay:10.37,2013-09-23 16:21:00,
2013-09-23 06:26:00,73.9,67.0,30.03,North,0,4.0,4.6,79,0.00,SCT,BKN,0.05,0.0,WeatherDisplay:10.37,2013-09-23 16:26:00,
2013-09-23 06:31:00,73.9,67.0,30.03,East,90,4.9,5.8,79,0.00,SCT,BKN,0.05,0.0,WeatherDisplay:10.37,2013-09-23 16:31:00,
2013-09-23 06:36:00,73.9,67.0,30.03,ENE,68,4.7,5.8,79,0.00,SCT,BKN,0.05,0.0,WeatherDisplay:10.37,2013-09-23 16:36:00,
2013-09-23 06:41:00,73.9,67.0,30.03,ENE,68,3.6,6.0,79,0.00,SCT,BKN,0.05,0.0,WeatherDisplay:10.37,2013-09-23 16:41:00,
2013-09-23 06:46:00,73.9,67.0,30.03,NE,45,4.3,5.8,79,0.00,SCT,BKN,0.05,0.0,WeatherDisplay:10.37,2013-09-23 16:46:00,
2013-09-23 06:51:00,74.1,66.8,30.03,NE,45,4.0,4.6,78,0.00,SCT,BKN,0.05,0.0,WeatherDisplay:10.37,2013-09-23 16:51:00,
2013-09-23 06:56:00,74.1,67.2,30.03,NE,45,3.1,4.3,79,0.00,SCT,BKN,0.05,0.0,WeatherDisplay:10.37,2013-09-23 16:56:00,
2013-09-23 07:01:00,74.1,67.2,30.03,NE,45,4.0,4.6,79,0.00,SCT,BKN,0.05,0.0,WeatherDisplay:10.37,2013-09-23 17:01:00,
2013-09-23 07:06:00,74.1,67.2,30.03,NE,45,2.9,3.5,79,0.00,SCT,BKN,0.05,0.0,WeatherDisplay:10.37,2013-09-23 17:06:00,
2013-09-23 07:11:00,74.3,67.4,30.03,NE,45,1.6,5.6,79,0.00,SCT,BKN,0.05,0.0,WeatherDisplay:10.37,2013-09-23 17:11:00,
2013-09-23 07:16:00,74.5,67.5,30.03,NE,45,2.6,4.9,79,0.00,SCT,BKN,0.05,0.0,WeatherDisplay:10.37,2013-09-23 17:16:00,
2013-09-23 07:21:00,73.9,67.7,30.03,East,90,2.4,2.4,81,0.00,SCT,BKN,0.05,0.0,WeatherDisplay:10.37,2013-09-23 17:21:00,
2013-09-23 07:26:00,73.4,67.2,30.06,ESE,112,1.4,2.3,81,0.04,RA,BKN,0.09,0.0,WeatherDisplay:10.37,2013-09-23 17:26:00,
2013-09-23 07:31:00,73.0,67.6,30.06,NE,45,1.4,2.3,83,0.04,RA,BKN,0.09,0.0,WeatherDisplay:10.37,2013-09-23 17:31:00,
2013-09-23 07:36:00,73.0,68.3,30.06,ESE,112,1.6,2.3,85,0.04,SCT,BKN,0.09,0.0,WeatherDisplay:10.37,2013-09-23 17:36:00,
2013-09-23 07:41:00,72.9,68.1,30.03,SSE,158,1.2,2.0,85,0.04,SCT,BKN,0.09,0.0,WeatherDisplay:10.37,2013-09-23 17:41:00,
2013-09-23 07:46:00,72.9,69.1,30.03,ENE,68,1.6,2.3,88,0.04,SCT,BKN,0.09,0.0,WeatherDisplay:10.37,2013-09-23 17:46:00,
2013-09-23 07:51:00,72.9,69.1,30.03,ESE,112,0.0,0.0,88,0.04,SCT,BKN,0.09,0.0,WeatherDisplay:10.37,2013-09-23 17:51:00,
2013-09-23 07:56:00,72.9,69.4,30.06,NNW,338,2.2,4.6,89,0.04,SCT,BKN,0.09,0.0,WeatherDisplay:10.37,2013-09-23 17:56:00,
2013-09-23 08:01:00,72.9,69.4,30.06,ESE,112,0.0,0.0,89,0.04,SCT,BKN,0.09,0.0,WeatherDisplay:10.37,2013-09-23 18:01:00,
2013-09-23 08:06:00,73.4,70.0,30.06,ENE,68,1.2,1.2,89,0.04,SCT,BKN,0.09,0.0,WeatherDisplay:10.37,2013-09-23 18:06:00,
2013-09-23 08:11:00,73.6,70.5,30.06,NNE,22,3.1,4.6,90,0.04,SCT,BKN,0.09,0.0,WeatherDisplay:10.37,2013-09-23 18:11:00,
2013-09-23 08:16:00,73.9,70.5,30.06,ESE,112,1.2,2.3,89,0.04,SCT,BKN,0.09,0.0,WeatherDisplay:10.37,2013-09-23 18:16:00,
2013-09-23 08:21:00,73.9,70.5,30.06,ESE,112,0.0,1.2,89,0.04,SCT,BKN,0.09,0.0,WeatherDisplay:10.37,2013-09-23 18:21:00,
2013-09-23 08:26:00,74.3,70.8,30.06,East,90,0.0,2.4,89,0.00,SCT,BKN,0.09,0.0,WeatherDisplay:10.37,2013-09-23 18:26:00,
2013-09-23 08:31:00,74.3,70.8,30.06,North,0,1.4,4.6,89,0.00,SCT,BKN,0.09,0.0,WeatherDisplay:10.37,2013-09-23 18:31:00,
2013-09-23 08:36:00,74.3,70.5,30.06,East,90,2.2,2.3,88,0.00,SCT,BKN,0.09,0.0,WeatherDisplay:10.37,2013-09-23 18:36:00,
2013-09-23 08:41:00,74.3,70.2,30.06,NE,45,2.4,4.6,87,0.00,SCT,BKN,0.09,0.0,WeatherDisplay:10.37,2013-09-23 18:41:00,
2013-09-23 08:46:00,74.3,69.1,30.06,NE,45,2.2,5.4,84,0.00,SCT,BKN,0.09,0.0,WeatherDisplay:10.37,2013-09-23 18:46:00,
2013-09-23 08:51:00,74.5,69.3,30.06,NE,45,2.0,3.5,84,0.00,SCT,BKN,0.09,0.0,WeatherDisplay:10.37,2013-09-23 18:51:00,
2013-09-23 08:56:00,74.5,69.0,30.03,NE,45,3.1,3.5,83,0.00,SCT,BKN,0.09,0.0,WeatherDisplay:10.37,2013-09-23 18:56:00,
2013-09-23 09:01:00,74.7,68.8,30.03,North,0,2.9,3.5,82,0.00,SCT,BKN,0.09,0.0,WeatherDisplay:10.37,2013-09-23 19:01:00,
2013-09-23 09:06:00,74.8,68.6,30.03,North,0,2.2,5.8,81,0.00,SCT,BKN,0.09,0.0,WeatherDisplay:10.37,2013-09-23 19:06:00,
2013-09-23 09:11:00,75.2,68.2,30.06,NE,45,2.9,3.5,79,0.00,SCT,BKN,0.09,0.0,WeatherDisplay:10.37,2013-09-23 19:11:00,
2013-09-23 09:16:00,75.4,68.8,30.06,NE,45,2.6,3.5,80,0.00,SCT,BKN,0.09,0.0,WeatherDisplay:10.37,2013-09-23 19:16:00,
2013-09-23 09:21:00,75.9,68.9,30.06,North,0,0.0,1.4,79,0.00,SCT,BKN,0.09,0.0,WeatherDisplay:10.37,2013-09-23 19:21:00,
2013-09-23 09:26:00,76.5,69.5,30.06,South,180,1.4,2.6,79,0.00,SCT,BKN,0.09,0.0,WeatherDisplay:10.37,2013-09-23 19:26:00,
2013-09-23 09:31:00,76.6,68.5,30.06,NNE,22,4.7,8.1,76,0.00,SCT,BKN,0.09,0.0,WeatherDisplay:10.37,2013-09-23 19:31:00,
2013-09-23 09:36:00,77.0,68.5,30.06,North,0,3.6,4.6,75,0.00,SCT,BKN,0.09,0.0,WeatherDisplay:10.37,2013-09-23 19:36:00,
2013-09-23 09:41:00,77.5,69.0,30.06,North,0,3.1,3.5,75,0.00,SCT,BKN,0.09,0.0,WeatherDisplay:10.37,2013-09-23 19:41:00,
2013-09-23 09:46:00,78.3,69.3,30.06,NE,45,2.2,4.6,74,0.00,SCT,BKN,0.09,0.0,WeatherDisplay:10.37,2013-09-23 19:46:00,
2013-09-23 09:51:00,78.6,69.2,30.06,NE,45,3.6,5.8,73,0.00,SCT,BKN,0.09,0.0,WeatherDisplay:10.37,2013-09-23 19:51:00,
2013-09-23 09:56:00,78.4,69.1,30.06,NE,45,4.7,5.8,73,0.00,SCT,BKN,0.09,0.0,WeatherDisplay:10.37,2013-09-23 19:56:00,
2013-09-23 10:01:00,78.1,69.5,30.06,NE,45,0.9,1.4,75,0.00,SCT,BKN,0.09,0.0,WeatherDisplay:10.37,2013-09-23 20:01:00,
2013-09-23 10:06:00,78.1,70.3,30.06,NE,45,0.0,3.5,77,0.00,SCT,BKN,0.09,0.0,WeatherDisplay:10.37,2013-09-23 20:06:00,
2013-09-23 10:11:00,77.9,69.7,30.06,NNE,22,1.6,2.4,76,0.00,SCT,BKN,0.09,0.0,WeatherDisplay:10.37,2013-09-23 20:11:00,
2013-09-23 10:16:00,78.1,69.9,30.06,NNE,22,2.2,3.5,76,0.00,SCT,BKN,0.09,0.0,WeatherDisplay:10.37,2013-09-23 20:16:00,
2013-09-23 10:21:00,78.3,70.1,30.06,NE,45,2.0,2.9,76,0.00,SCT,BKN,0.09,0.0,WeatherDisplay:10.37,2013-09-23 20:21:00,
2013-09-23 10:26:00,78.3,69.7,30.09,North,0,1.2,1.2,75,0.00,SCT,BKN,0.09,0.0,WeatherDisplay:10.37,2013-09-23 20:26:00,
2013-09-23 10:31:00,78.1,69.1,30.09,NNW,338,3.1,4.6,74,0.00,SCT,BKN,0.09,0.0,WeatherDisplay:10.37,2013-09-23 20:31:00,
2013-09-23 10:36:00,78.4,69.5,30.09,North,0,2.0,3.8,74,0.00,SCT,BKN,0.09,0.0,WeatherDisplay:10.37,2013-09-23 20:36:00,
2013-09-23 10:41:00,79.0,67.9,30.06,NNW,338,3.3,5.8,69,0.00,SCT,BKN,0.09,0.0,WeatherDisplay:10.37,2013-09-23 20:41:00,
2013-09-23 10:46:00,79.5,68.5,30.06,NNE,22,2.9,4.6,69,0.00,SCT,BKN,0.09,0.0,WeatherDisplay:10.37,2013-09-23 20:46:00,
2013-09-23 10:51:00,79.7,67.8,30.06,NW,315,4.5,8.5,67,0.00,SCT,BKN,0.09,0.0,WeatherDisplay:10.37,2013-09-23 20:51:00,
2013-09-23 10:56:00,79.7,66.9,30.06,NNE,22,5.4,5.8,65,0.00,SCT,BKN,0.09,0.0,WeatherDisplay:10.37,2013-09-23 20:56:00,
2013-09-23 11:01:00,79.9,67.5,30.06,NE,45,4.5,5.8,66,0.00,SCT,BKN,0.09,0.0,WeatherDisplay:10.37,2013-09-23 21:01:00,
2013-09-23 11:06:00,80.8,68.4,30.06,NNE,22,0.0,2.3,66,0.00,SCT,BKN,0.09,0.0,WeatherDisplay:10.37,2013-09-23 21:06:00,
2013-09-23 11:11:00,81.0,68.5,30.06,NW,315,2.6,3.5,66,0.00,SCT,BKN,0.09,0.0,WeatherDisplay:10.37,2013-09-23 21:11:00,
2013-09-23 11:16:00,81.1,68.3,30.06,East,90,2.2,3.5,65,0.00,SCT,BKN,0.09,0.0,WeatherDisplay:10.37,2013-09-23 21:16:00,
2013-09-23 11:21:00,81.5,68.1,30.06,West,270,2.4,3.3,64,0.00,SCT,BKN,0.09,0.0,WeatherDisplay:10.37,2013-09-23 21:21:00,
2013-09-23 11:26:00,82.6,68.7,30.03,NW,315,1.2,2.3,63,0.00,SCT,BKN,0.09,0.0,WeatherDisplay:10.37,2013-09-23 21:26:00,
2013-09-23 11:31:00,82.6,68.2,30.03,NE,45,3.6,4.6,62,0.00,SCT,BKN,0.09,0.0,WeatherDisplay:10.37,2013-09-23 21:31:00,
2013-09-23 11:36:00,82.8,68.4,30.03,North,0,1.4,2.3,62,0.00,SCT,BKN,0.09,0.0,WeatherDisplay:10.37,2013-09-23 21:36:00,
2013-09-23 11:41:00,83.5,68.1,30.03,NE,45,3.8,4.6,60,0.00,SCT,BKN,0.09,0.0,WeatherDisplay:10.37,2013-09-23 21:41:00,
2013-09-23 11:46:00,84.7,69.3,30.03,East,90,2.4,3.5,60,0.00,SCT,BKN,0.09,0.0,WeatherDisplay:10.37,2013-09-23 21:46:00,
2013-09-23 11:51:00,86.2,69.7,30.03,NE,45,2.4,3.5,58,0.00,SCT,BKN,0.09,0.0,WeatherDisplay:10.37,2013-09-23 21:51:00,
2013-09-23 11:56:00,85.8,68.3,30.03,WNW,292,2.2,6.2,56,0.00,SCT,BKN,0.09,0.0,WeatherDisplay:10.37,2013-09-23 21:56:00,
2013-09-23 12:01:00,84.7,67.8,30.03,ENE,68,1.2,2.4,57,0.00,SCT,BKN,0.09,0.0,WeatherDisplay:10.37,2013-09-23 22:01:00,
2013-09-23 12:06:00,86.7,68.1,30.03,NE,45,3.1,3.5,54,0.00,SCT,BKN,0.09,0.0,WeatherDisplay:10.37,2013-09-23 22:06:00,
2013-09-23 12:11:00,88.7,69.9,30.03,ENE,68,2.0,4.6,54,0.00,SCT,BKN,0.09,0.0,WeatherDisplay:10.37,2013-09-23 22:11:00,
2013-09-23 12:16:00,90.7,70.6,30.03,North,0,2.0,2.3,52,0.00,SCT,BKN,0.09,0.0,WeatherDisplay:10.37,2013-09-23 22:16:00,
2013-09-23 12:21:00,89.4,67.1,30.03,West,270,3.3,4.6,48,0.00,SCT,BKN,0.09,0.0,WeatherDisplay:10.37,2013-09-23 22:21:00,
2013-09-23 12:26:00,90.0,68.8,30.03,NW,315,1.6,2.3,50,0.00,SCT,BKN,0.09,0.0,WeatherDisplay:10.37,2013-09-23 22:26:00,
2013-09-23 12:31:00,90.7,68.9,30.03,NE,45,4.0,5.8,49,0.00,SCT,BKN,0.09,0.0,WeatherDisplay:10.37,2013-09-23 22:31:00,
2013-09-23 12:36:00,91.6,69.1,30.03,NNE,22,1.4,2.6,48,0.00,SCT,BKN,0.09,0.0,WeatherDisplay:10.37,2013-09-23 22:36:00,
2013-09-23 12:41:00,90.5,67.5,30.00,NE,45,2.9,4.6,47,0.00,SCT,BKN,0.09,0.0,WeatherDisplay:10.37,2013-09-23 22:41:00,
2013-09-23 12:56:00,91.8,68.0,30.00,NNW,338,3.8,4.6,46,0.00,SCT,BKN,0.09,0.0,WeatherDisplay:10.37,2013-09-23 22:56:00,
2013-09-23 13:01:00,91.4,67.7,30.00,NNE,22,2.2,3.6,46,0.00,SCT,BKN,0.09,0.0,WeatherDisplay:10.37,2013-09-23 23:01:00,
2013-09-23 13:06:00,90.5,67.5,30.00,NNE,22,2.2,2.3,47,0.00,SCT,BKN,0.09,0.0,WeatherDisplay:10.37,2013-09-23 23:06:00,
2013-09-23 13:11:00,90.0,67.6,30.00,NNW,338,1.6,1.6,48,0.00,SCT,BKN,0.09,0.0,WeatherDisplay:10.37,2013-09-23 23:11:00,
2013-09-23 13:16:00,89.6,67.9,30.00,North,0,2.0,4.6,49,0.00,SCT,BKN,0.09,0.0,WeatherDisplay:10.37,2013-09-23 23:16:00,
2013-09-23 13:21:00,91.0,69.2,30.00,North,0,2.0,3.5,49,0.00,SCT,BKN,0.09,0.0,WeatherDisplay:10.37,2013-09-23 23:21:00,
2013-09-23 13:26:00,91.8,68.0,30.00,North,0,2.4,3.5,46,0.00,SCT,BKN,0.09,0.0,WeatherDisplay:10.37,2013-09-23 23:26:00,
2013-09-23 13:31:00,91.4,67.7,30.00,NNE,22,3.8,4.7,46,0.00,SCT,BKN,0.09,0.0,WeatherDisplay:10.37,2013-09-23 23:31:00,
2013-09-23 13:36:00,90.3,66.7,30.00,East,90,4.0,5.8,46,0.00,SCT,BKN,0.09,0.0,WeatherDisplay:10.37,2013-09-23 23:36:00,
2013-09-23 13:45:00,91.8,66.7,30.00,NE,45,3.3,4.6,44,0.00,SCT,BKN,0.09,0.0,WeatherDisplay:10.37,2013-09-23 23:45:00,
2013-09-23 13:50:00,92.5,68.7,30.00,NE,45,2.0,4.6,46,0.00,SCT,BKN,0.09,0.0,WeatherDisplay:10.37,2013-09-23 23:50:00,
2013-09-23 13:55:00,91.2,65.6,30.00,North,0,4.0,5.8,43,0.00,SCT,BKN,0.09,0.0,WeatherDisplay:10.37,2013-09-23 23:55:00,
2013-09-23 14:00:00,92.5,67.4,30.00,NNE,22,3.3,4.6,44,0.00,SCT,BKN,0.09,0.0,WeatherDisplay:10.37,2013-09-24 00:00:00,
2013-09-23 14:05:00,93.9,68.0,30.00,NE,45,3.6,4.9,43,0.00,SCT,BKN,0.09,0.0,WeatherDisplay:10.37,2013-09-24 00:05:00,
2013-09-23 14:11:00,92.5,66.1,29.97,ENE,68,3.8,5.9,42,0.00,SCT,BKN,0.09,0.0,WeatherDisplay:10.37,2013-09-24 00:11:00,
2013-09-23 14:16:00,91.9,66.2,29.97,NE,45,3.6,4.6,43,0.00,SCT,BKN,0.09,0.0,WeatherDisplay:10.37,2013-09-24 00:16:00,
2013-09-23 14:21:00,90.1,65.9,29.97,NE,45,3.3,3.5,45,0.00,SCT,BKN,0.09,0.0,WeatherDisplay:10.37,2013-09-24 00:21:00,
2013-09-23 14:26:00,92.5,68.0,30.00,NNE,22,2.6,4.6,45,0.00,SCT,BKN,0.09,0.0,WeatherDisplay:10.37,2013-09-24 00:26:00,
2013-09-23 14:31:00,93.2,67.4,30.00,NE,45,2.9,3.5,43,0.00,SCT,BKN,0.09,0.0,WeatherDisplay:10.37,2013-09-24 00:31:00,
2013-09-23 14:36:00,92.3,65.9,30.00,NW,315,4.5,6.9,42,0.00,SCT,BKN,0.09,0.0,WeatherDisplay:10.37,2013-09-24 00:36:00,
2013-09-23 14:41:00,93.0,67.2,30.00,ENE,68,2.9,4.0,43,0.00,SCT,BKN,0.09,0.0,WeatherDisplay:10.37,2013-09-24 00:41:00,
2013-09-23 15:20:00,86.5,63.9,30.00,ENE,68,3.3,6.4,47,0.00,SCT,BKN,0.09,0.0,WeatherDisplay:10.37,2013-09-24 01:20:00,
2013-09-23 15:25:00,85.3,65.1,30.00,NE,45,4.0,5.8,51,0.00,SCT,BKN,0.09,0.0,WeatherDisplay:10.37,2013-09-24 01:25:00,
2013-09-23 15:30:00,85.6,64.9,30.00,NE,45,4.3,4.7,50,0.00,SCT,BKN,0.09,0.0,WeatherDisplay:10.37,2013-09-24 01:30:00,
2013-09-23 15:35:00,85.8,66.2,30.00,NNE,22,2.9,4.6,52,0.00,RA,BKN,0.09,0.0,WeatherDisplay:10.37,2013-09-24 01:35:00,
2013-09-23 15:42:00,83.1,64.2,30.00,ENE,68,4.9,8.1,53,0.00,RA,BKN,0.09,0.0,WeatherDisplay:10.37,2013-09-24 01:42:00,
2013-09-23 15:47:00,82.8,65.5,30.00,NE,45,4.0,4.6,56,0.00,SCT,BKN,0.09,0.0,WeatherDisplay:10.37,2013-09-24 01:47:00,
2013-09-23 15:52:00,84.9,67.5,30.00,NE,45,4.3,5.8,56,0.00,SCT,BKN,0.09,0.0,WeatherDisplay:10.37,2013-09-24 01:52:00,
2013-09-23 15:57:00,85.5,67.4,30.00,NE,45,2.0,4.6,55,0.00,SCT,BKN,0.09,0.0,WeatherDisplay:10.37,2013-09-24 01:57:00,
2013-09-23 16:02:00,86.4,68.3,30.00,ESE,112,2.2,4.6,55,0.00,SCT,BKN,0.09,0.0,WeatherDisplay:10.37,2013-09-24 02:02:00,
2013-09-23 16:07:00,84.9,65.9,30.00,East,90,1.6,2.6,53,0.00,SCT,BKN,0.09,0.0,WeatherDisplay:10.37,2013-09-24 02:07:00,
2013-09-23 16:12:00,82.9,65.6,30.00,NE,45,1.4,4.6,56,0.00,SCT,BKN,0.09,0.0,WeatherDisplay:10.37,2013-09-24 02:12:00,
2013-09-23 16:17:00,84.7,67.3,30.00,ENE,68,2.0,3.5,56,0.00,SCT,BKN,0.09,0.0,WeatherDisplay:10.37,2013-09-24 02:17:00,
2013-09-23 16:22:00,84.9,66.9,30.00,NNE,22,2.4,3.8,55,0.00,SCT,BKN,0.09,0.0,WeatherDisplay:10.37,2013-09-24 02:22:00,
2013-09-23 16:27:00,84.2,65.8,30.00,East,90,3.3,3.3,54,0.00,SCT,BKN,0.09,0.0,WeatherDisplay:10.37,2013-09-24 02:27:00,
2013-09-23 16:32:00,82.9,66.1,30.00,North,0,3.6,5.8,57,0.00,SCT,BKN,0.09,0.0,WeatherDisplay:10.37,2013-09-24 02:32:00,
2013-09-23 16:37:00,80.6,66.8,30.00,NE,45,4.5,5.8,63,0.00,SCT,BKN,0.09,0.0,WeatherDisplay:10.37,2013-09-24 02:37:00,
2013-09-23 16:42:00,78.3,66.8,30.00,ENE,68,2.9,3.5,68,0.00,SCT,BKN,0.09,0.0,WeatherDisplay:10.37,2013-09-24 02:42:00,
2013-09-23 16:47:00,77.5,67.4,30.00,East,90,1.4,2.4,71,0.00,SCT,BKN,0.09,0.0,WeatherDisplay:10.37,2013-09-24 02:47:00,
2013-09-23 16:52:00,77.2,69.4,30.00,NE,45,4.9,6.9,77,0.00,SCT,BKN,0.09,0.0,WeatherDisplay:10.37,2013-09-24 02:52:00,
2013-09-23 16:57:00,76.6,66.9,30.00,SSE,158,2.4,4.6,72,0.00,SCT,BKN,0.09,0.0,WeatherDisplay:10.37,2013-09-24 02:57:00,
2013-09-23 17:02:00,76.1,67.6,30.00,ENE,68,4.0,5.8,75,0.00,SCT,BKN,0.09,0.0,WeatherDisplay:10.37,2013-09-24 03:02:00,
2013-09-23 17:07:00,77.0,68.1,30.00,NE,45,0.0,2.3,74,0.00,SCT,BKN,0.09,0.0,WeatherDisplay:10.37,2013-09-24 03:07:00,
2013-09-23 17:12:00,76.8,68.7,30.00,South,180,1.4,2.3,76,0.00,SCT,BKN,0.09,0.0,WeatherDisplay:10.37,2013-09-24 03:12:00,
2013-09-23 17:17:00,76.8,68.3,30.00,NE,45,4.5,6.9,75,0.00,SCT,BKN,0.09,0.0,WeatherDisplay:10.37,2013-09-24 03:17:00,
2013-09-23 17:22:00,76.6,67.3,30.00,East,90,2.9,4.6,73,0.00,SCT,BKN,0.09,0.0,WeatherDisplay:10.37,2013-09-24 03:22:00,
2013-09-23 17:27:00,76.5,67.9,30.00,NE,45,5.4,5.8,75,0.00,SCT,BKN,0.09,0.0,WeatherDisplay:10.37,2013-09-24 03:27:00,
2013-09-23 17:32:00,76.5,68.3,30.00,East,90,4.9,8.1,76,0.00,SCT,BKN,0.09,0.0,WeatherDisplay:10.37,2013-09-24 03:32:00,
2013-09-23 17:37:00,76.5,68.7,30.00,NE,45,3.3,5.8,77,0.00,SCT,BKN,0.09,0.0,WeatherDisplay:10.37,2013-09-24 03:37:00,
2013-09-23 17:42:00,76.5,68.3,30.00,East,90,4.5,8.1,76,0.00,SCT,BKN,0.09,0.0,WeatherDisplay:10.37,2013-09-24 03:42:00,
2013-09-23 17:47:00,76.5,68.3,30.00,East,90,2.4,2.4,76,0.00,SCT,BKN,0.09,0.0,WeatherDisplay:10.37,2013-09-24 03:47:00,
2013-09-23 17:52:00,76.5,68.3,30.00,North,0,3.8,4.6,76,0.00,SCT,BKN,0.09,0.0,WeatherDisplay:10.37,2013-09-24 03:52:00,
2013-09-23 17:57:00,76.3,68.2,30.00,ENE,68,3.1,5.8,76,0.00,SCT,BKN,0.09,0.0,WeatherDisplay:10.37,2013-09-24 03:57:00,
2013-09-23 18:01:00,76.3,67.8,30.00,NE,45,2.9,3.5,75,0.00,SCT,BKN,0.09,0.0,WeatherDisplay:10.37,2013-09-24 04:01:00,
2013-09-23 18:04:00,76.3,68.2,30.00,NE,45,3.3,4.6,76,0.00,SCT,BKN,0.09,0.0,WeatherDisplay:10.37,2013-09-24 04:04:00,
2013-09-23 18:09:00,76.1,68.4,29.97,NE,45,4.7,7.4,77,0.00,SCT,BKN,0.09,0.0,WeatherDisplay:10.37,2013-09-24 04:09:00,
2013-09-23 18:14:00,76.1,68.0,29.97,North,0,2.9,3.5,76,0.00,SCT,BKN,0.09,0.0,WeatherDisplay:10.37,2013-09-24 04:14:00,
2013-09-23 18:19:00,76.1,68.0,29.97,ESE,112,2.4,5.8,76,0.00,SCT,BKN,0.09,0.0,WeatherDisplay:10.37,2013-09-24 04:19:00,
2013-09-23 18:24:00,76.1,68.4,29.97,NNE,22,4.3,5.8,77,0.00,SCT,BKN,0.09,0.0,WeatherDisplay:10.37,2013-09-24 04:24:00,
2013-09-23 18:29:00,75.9,67.4,29.97,East,90,2.0,5.8,75,0.00,SCT,BKN,0.09,0.0,WeatherDisplay:10.37,2013-09-24 04:29:00,
2013-09-23 18:34:00,75.9,67.0,29.97,East,90,2.4,2.4,74,0.00,SCT,BKN,0.09,0.0,WeatherDisplay:10.37,2013-09-24 04:34:00,
2013-09-23 18:39:00,75.9,67.4,30.00,NE,45,5.4,6.9,75,0.00,SCT,BKN,0.09,0.0,WeatherDisplay:10.37,2013-09-24 04:39:00,
2013-09-23 18:44:00,75.9,67.0,30.00,NE,45,3.6,4.6,74,0.00,SCT,BKN,0.09,0.0,WeatherDisplay:10.37,2013-09-24 04:44:00,
2013-09-23 18:49:00,75.9,67.4,30.00,ENE,68,3.3,5.8,75,0.00,SCT,BKN,0.09,0.0,WeatherDisplay:10.37,2013-09-24 04:49:00,
2013-09-23 18:54:00,75.9,67.8,30.00,NE,45,1.6,4.7,76,0.00,SCT,BKN,0.09,0.0,WeatherDisplay:10.37,2013-09-24 04:54:00,
2013-09-23 18:59:00,75.9,67.8,30.00,NE,45,3.6,6.9,76,0.00,SCT,BKN,0.09,0.0,WeatherDisplay:10.37,2013-09-24 04:59:00,
2013-09-23 19:04:00,75.9,67.8,30.00,NE,45,3.8,8.1,76,0.00,SCT,BKN,0.09,0.0,WeatherDisplay:10.37,2013-09-24 05:04:00,
2013-09-23 19:09:00,75.9,67.4,30.00,NE,45,2.6,6.9,75,0.00,SCT,BKN,0.09,0.0,WeatherDisplay:10.37,2013-09-24 05:09:00,
2013-09-23 19:14:00,75.9,68.2,30.00,NE,45,3.1,5.9,77,0.00,SCT,BKN,0.09,0.0,WeatherDisplay:10.37,2013-09-24 05:14:00,
2013-09-23 19:19:00,75.9,68.2,30.00,NNE,22,3.3,6.2,77,0.00,SCT,BKN,0.09,0.0,WeatherDisplay:10.37,2013-09-24 05:19:00,
2013-09-23 19:24:00,75.9,68.2,30.00,NE,45,3.6,5.8,77,0.00,SCT,BKN,0.09,0.0,WeatherDisplay:10.37,2013-09-24 05:24:00,
2013-09-23 19:29:00,75.9,68.2,30.00,WNW,292,1.2,7.4,77,0.00,SCT,BKN,0.09,0.0,WeatherDisplay:10.37,2013-09-24 05:29:00,
2013-09-23 19:34:00,75.9,68.2,30.00,NNE,22,3.3,5.6,77,0.00,SCT,BKN,0.09,0.0,WeatherDisplay:10.37,2013-09-24 05:34:00,
2013-09-23 19:39:00,75.9,68.6,30.00,ESE,112,3.6,6.2,78,0.00,SCT,BKN,0.09,0.0,WeatherDisplay:10.37,2013-09-24 05:39:00,
2013-09-23 19:44:00,75.9,68.6,30.00,North,0,4.5,4.6,78,0.00,SCT,BKN,0.09,0.0,WeatherDisplay:10.37,2013-09-24 05:44:00,
2013-09-23 19:49:00,75.9,68.2,30.00,ENE,68,2.4,3.5,77,0.00,SCT,BKN,0.09,0.0,WeatherDisplay:10.37,2013-09-24 05:49:00,
2013-09-23 19:54:00,75.9,68.6,30.00,ENE,68,5.6,5.8,78,0.00,SCT,BKN,0.09,0.0,WeatherDisplay:10.37,2013-09-24 05:54:00,
2013-09-23 19:59:00,75.9,68.2,30.00,NE,45,3.1,5.9,77,0.00,SCT,BKN,0.09,0.0,WeatherDisplay:10.37,2013-09-24 05:59:00,
2013-09-23 20:04:00,76.1,68.0,30.00,East,90,3.3,5.8,76,0.00,SCT,BKN,0.09,0.0,WeatherDisplay:10.37,2013-09-24 06:04:00,
2013-09-23 20:09:00,76.1,68.0,30.00,WNW,292,4.7,8.1,76,0.00,SCT,BKN,0.09,0.0,WeatherDisplay:10.37,2013-09-24 06:09:00,
2013-09-23 20:14:00,76.1,68.0,30.00,ENE,68,4.7,5.8,76,0.00,SCT,BKN,0.09,0.0,WeatherDisplay:10.37,2013-09-24 06:14:00,
2013-09-23 20:19:00,76.1,66.8,30.00,NE,45,4.9,6.9,73,0.00,SCT,BKN,0.09,0.0,WeatherDisplay:10.37,2013-09-24 06:19:00,
2013-09-23 20:24:00,76.1,66.8,30.00,SE,135,3.1,9.2,73,0.00,SCT,BKN,0.09,0.0,WeatherDisplay:10.37,2013-09-24 06:24:00,
2013-09-23 20:29:00,76.1,67.2,30.00,NE,45,4.0,5.8,74,0.00,SCT,BKN,0.09,0.0,WeatherDisplay:10.37,2013-09-24 06:29:00,
2013-09-23 20:34:00,76.1,66.8,30.00,NE,45,5.9,8.1,73,0.00,SCT,BKN,0.09,0.0,WeatherDisplay:10.37,2013-09-24 06:34:00,
2013-09-23 20:39:00,76.3,67.8,30.00,NNE,22,3.6,8.1,75,0.00,SCT,BKN,0.09,0.0,WeatherDisplay:10.37,2013-09-24 06:39:00,
2013-09-23 20:44:00,76.1,67.6,30.00,NW,315,1.6,3.3,75,0.00,SCT,BKN,0.09,0.0,WeatherDisplay:10.37,2013-09-24 06:44:00,
2013-09-23 20:49:00,76.1,67.6,30.00,East,90,1.6,2.3,75,0.00,SCT,BKN,0.09,0.0,WeatherDisplay:10.37,2013-09-24 06:49:00,
2013-09-23 20:54:00,75.9,67.4,30.00,NNE,22,3.8,8.1,75,0.00,SCT,BKN,0.09,0.0,WeatherDisplay:10.37,2013-09-24 06:54:00,
2013-09-23 20:59:00,75.9,67.4,30.00,NE,45,1.6,3.3,75,0.00,SCT,BKN,0.09,0.0,WeatherDisplay:10.37,2013-09-24 06:59:00,
2013-09-23 21:04:00,75.9,67.4,30.00,North,0,5.4,6.9,75,0.00,SCT,BKN,0.09,0.0,WeatherDisplay:10.37,2013-09-24 07:04:00,
2013-09-23 21:09:00,76.1,67.6,30.00,SSE,158,4.3,5.6,75,0.00,SCT,BKN,0.09,0.0,WeatherDisplay:10.37,2013-09-24 07:09:00,
2013-09-23 21:14:00,76.1,67.6,30.00,WNW,292,3.8,5.8,75,0.00,SCT,BKN,0.09,0.0,WeatherDisplay:10.37,2013-09-24 07:14:00,
2013-09-23 21:19:00,76.1,67.6,30.00,ESE,112,4.9,5.8,75,0.00,SCT,BKN,0.09,0.0,WeatherDisplay:10.37,2013-09-24 07:19:00,
2013-09-23 21:24:00,75.9,67.4,30.00,SSW,202,1.4,5.8,75,0.00,SCT,BKN,0.09,0.0,WeatherDisplay:10.37,2013-09-24 07:24:00,
2013-09-23 21:29:00,76.1,67.2,30.00,WSW,248,4.9,8.1,74,0.00,SCT,BKN,0.09,0.0,WeatherDisplay:10.37,2013-09-24 07:29:00,
2013-09-23 21:34:00,75.9,67.4,30.00,NE,45,3.1,4.6,75,0.00,SCT,BKN,0.09,0.0,WeatherDisplay:10.37,2013-09-24 07:34:00,
2013-09-23 21:39:00,75.7,67.6,30.00,NE,45,2.9,4.6,76,0.00,SCT,BKN,0.09,0.0,WeatherDisplay:10.37,2013-09-24 07:39:00,
2013-09-23 21:44:00,75.4,67.7,30.00,ESE,112,2.9,6.2,77,0.00,SCT,BKN,0.09,0.0,WeatherDisplay:10.37,2013-09-24 07:44:00,
2013-09-23 21:49:00,75.2,67.9,30.00,ESE,112,4.3,5.8,78,0.00,SCT,BKN,0.09,0.0,WeatherDisplay:10.37,2013-09-24 07:49:00,
2013-09-23 21:54:00,75.4,68.0,30.00,SE,135,0.9,3.5,78,0.00,SCT,BKN,0.09,0.0,WeatherDisplay:10.37,2013-09-24 07:54:00,
2013-09-23 21:59:00,75.2,67.9,30.00,East,90,1.4,3.6,78,0.00,SCT,BKN,0.09,0.0,WeatherDisplay:10.37,2013-09-24 07:59:00,
2013-09-23 22:04:00,75.4,68.0,30.00,ESE,112,4.5,4.5,78,0.00,SCT,BKN,0.09,0.0,WeatherDisplay:10.37,2013-09-24 08:04:00,
2013-09-23 22:09:00,75.6,67.8,30.03,South,180,4.0,5.8,77,0.00,SCT,BKN,0.09,0.0,WeatherDisplay:10.37,2013-09-24 08:09:00,
2013-09-23 22:14:00,75.6,67.8,30.03,NW,315,1.6,2.2,77,0.00,SCT,BKN,0.09,0.0,WeatherDisplay:10.37,2013-09-24 08:14:00,
2013-09-23 22:19:00,75.6,67.8,30.03,NE,45,3.1,5.8,77,0.00,SCT,BKN,0.09,0.0,WeatherDisplay:10.37,2013-09-24 08:19:00,
2013-09-23 22:24:00,75.7,67.6,30.00,ENE,68,4.3,4.9,76,0.00,SCT,BKN,0.09,0.0,WeatherDisplay:10.37,2013-09-24 08:24:00,
2013-09-23 22:29:00,75.7,68.0,30.00,SSW,202,1.6,2.4,77,0.00,SCT,BKN,0.09,0.0,WeatherDisplay:10.37,2013-09-24 08:29:00,
2013-09-23 22:34:00,75.7,67.2,30.00,North,0,2.9,5.8,75,0.00,SCT,BKN,0.09,0.0,WeatherDisplay:10.37,2013-09-24 08:34:00,
2013-09-23 22:39:00,75.7,67.2,30.03,West,270,2.4,2.9,75,0.00,SCT,BKN,0.09,0.0,WeatherDisplay:10.37,2013-09-24 08:39:00,
2013-09-23 22:44:00,75.7,67.6,30.03,NE,45,0.0,4.6,76,0.00,SCT,BKN,0.09,0.0,WeatherDisplay:10.37,2013-09-24 08:44:00,
2013-09-23 22:49:00,75.7,67.2,30.03,East,90,4.0,5.8,75,0.00,SCT,BKN,0.09,0.0,WeatherDisplay:10.37,2013-09-24 08:49:00,
2013-09-23 22:54:00,75.7,67.2,30.00,East,90,2.2,3.5,75,0.00,SCT,BKN,0.09,0.0,WeatherDisplay:10.37,2013-09-24 08:54:00,
2013-09-23 22:59:00,75.7,66.9,30.00,NE,45,3.8,4.6,74,0.00,SCT,BKN,0.09,0.0,WeatherDisplay:10.37,2013-09-24 08:59:00,
2013-09-23 23:05:00,75.7,66.5,30.00,SSE,158,2.4,3.1,73,0.00,SCT,BKN,0.09,0.0,WeatherDisplay:10.37,2013-09-24 09:05:00,
2013-09-23 23:10:00,75.7,66.9,30.00,SSE,147,2.0,0.0,74,0.00,SCT,BKN,0.09,0.0,WeatherDisplay:10.37,2013-09-24 09:10:00,
2013-09-23 23:15:00,75.7,66.9,30.00,SE,137,2.0,0.0,74,0.00,SCT,BKN,0.09,0.0,WeatherDisplay:10.37,2013-09-24 09:15:00,
2013-09-23 23:20:00,75.7,66.5,30.00,SE,127,2.0,0.0,73,0.00,SCT,BKN,0.09,0.0,WeatherDisplay:10.37,2013-09-24 09:20:00,
2013-09-23 23:25:00,75.7,66.9,30.00,ENE,72,3.0,0.0,74,0.00,SCT,BKN,0.09,0.0,WeatherDisplay:10.37,2013-09-24 09:25:00,
2013-09-23 23:30:00,75.7,66.1,30.00,ENE,73,2.0,0.0,72,0.00,SCT,BKN,0.09,0.0,WeatherDisplay:10.37,2013-09-24 09:30:00,
2013-09-23 23:35:00,75.7,66.5,30.00,SSW,209,1.0,0.0,73,0.00,SCT,BKN,0.09,0.0,WeatherDisplay:10.37,2013-09-24 09:35:00,
2013-09-23 23:40:00,75.7,66.9,30.00,East,93,3.0,0.0,74,0.00,SCT,BKN,0.09,0.0,WeatherDisplay:10.37,2013-09-24 09:40:00,
2013-09-23 23:45:00,75.7,66.5,30.00,ENE,76,0.0,0.0,73,0.00,SCT,BKN,0.09,0.0,WeatherDisplay:10.37,2013-09-24 09:45:00,
2013-09-23 23:50:00,75.6,66.7,30.00,NE,48,1.0,0.0,74,0.00,SCT,BKN,0.09,0.0,WeatherDisplay:10.37,2013-09-24 09:50:00,
2013-09-23 23:55:00,75.6,66.3,30.00,NE,45,5.4,6.9,73,0.00,SCT,BKN,0.09,0.0,WeatherDisplay:10.37,2013-09-24 09:55:00,